sensor_id;sensor_type;location;lat;lon;timestamp;pressure;altitude;pressure_sealevel;temperature;humidity
43621;BME280;29213;50.770;7.298;2023-07-20T00:01:05;100651.31;;;17.88;48.85
43621;BME280;29213;50.770;7.298;2023-07-20T00:03:31;100655.50;;;17.84;49.08
43621;BME280;29213;50.770;7.298;2023-07-20T00:05:56;100633.53;;;17.67;48.99
43621;BME280;29213;50.770;7.298;2023-07-20T00:08:22;100649.47;;;17.82;48.98
43621;BME280;29213;50.770;7.298;2023-07-20T00:10:47;100663.34;;;17.92;49.15
43621;BME280;29213;50.770;7.298;2023-07-20T00:13:13;100645.16;;;17.67;49.07
43621;BME280;29213;50.770;7.298;2023-07-20T00:15:38;100661.69;;;17.78;49.50
43621;BME280;29213;50.770;7.298;2023-07-20T00:18:04;100612.03;;;17.46;49.48
43621;BME280;29213;50.770;7.298;2023-07-20T00:20:30;100684.69;;;17.94;50.03
43621;BME280;29213;50.770;7.298;2023-07-20T00:22:56;100611.19;;;17.46;49.66
43621;BME280;29213;50.770;7.298;2023-07-20T00:25:23;100677.47;;;17.81;49.91
43621;BME280;29213;50.770;7.298;2023-07-20T00:27:49;100639.34;;;17.57;49.68
43621;BME280;29213;50.770;7.298;2023-07-20T00:30:14;100680.34;;;17.86;50.10
43621;BME280;29213;50.770;7.298;2023-07-20T00:32:40;100681.59;;;17.83;50.24
43621;BME280;29213;50.770;7.298;2023-07-20T00:35:05;100686.97;;;17.83;50.11
43621;BME280;29213;50.770;7.298;2023-07-20T00:37:31;100597.56;;;17.27;50.29
43621;BME280;29213;50.770;7.298;2023-07-20T00:39:56;100665.66;;;17.68;50.33
43621;BME280;29213;50.770;7.298;2023-07-20T00:42:22;100684.94;;;17.79;50.47
43621;BME280;29213;50.770;7.298;2023-07-20T00:44:47;100580.38;;;17.08;50.41
43621;BME280;29213;50.770;7.298;2023-07-20T00:47:13;100691.34;;;17.78;50.69
43621;BME280;29213;50.770;7.298;2023-07-20T00:49:39;100624.25;;;17.35;50.67
43621;BME280;29213;50.770;7.298;2023-07-20T00:52:06;100690.13;;;17.73;50.69
43621;BME280;29213;50.770;7.298;2023-07-20T00:54:32;100672.69;;;17.62;50.98
43621;BME280;29213;50.770;7.298;2023-07-20T00:56:58;100646.81;;;17.41;51.13
43621;BME280;29213;50.770;7.298;2023-07-20T00:59:24;100683.88;;;17.59;51.15
43621;BME280;29213;50.770;7.298;2023-07-20T01:01:49;100649.31;;;17.36;51.22
43621;BME280;29213;50.770;7.298;2023-07-20T01:04:15;100695.69;;;17.65;51.25
43621;BME280;29213;50.770;7.298;2023-07-20T01:06:53;100695.69;;;17.65;51.44
43621;BME280;29213;50.770;7.298;2023-07-20T01:09:48;100621.56;;;17.15;51.57
43621;BME280;29213;50.770;7.298;2023-07-20T01:12:22;100658.00;;;17.38;51.49
43621;BME280;29213;50.770;7.298;2023-07-20T01:14:51;100622.22;;;17.17;51.61
43621;BME280;29213;50.770;7.298;2023-07-20T01:17:17;100639.16;;;17.25;52.14
43621;BME280;29213;50.770;7.298;2023-07-20T01:19:42;100610.81;;;17.02;51.59
43621;BME280;29213;50.770;7.298;2023-07-20T01:22:23;100700.66;;;17.55;51.91
43621;BME280;29213;50.770;7.298;2023-07-20T01:25:21;100702.13;;;17.51;51.93
43621;BME280;29213;50.770;7.298;2023-07-20T01:33:03;100697.13;;;17.47;52.17
43621;BME280;29213;50.770;7.298;2023-07-20T01:35:29;100640.84;;;17.12;52.38
43621;BME280;29213;50.770;7.298;2023-07-20T01:37:56;100679.13;;;17.34;52.48
43621;BME280;29213;50.770;7.298;2023-07-20T01:40:23;100660.69;;;17.25;52.28
43621;BME280;29213;50.770;7.298;2023-07-20T01:42:51;100609.34;;;16.92;52.50
43621;BME280;29213;50.770;7.298;2023-07-20T01:45:17;100688.44;;;17.39;52.68
43621;BME280;29213;50.770;7.298;2023-07-20T01:47:42;100682.44;;;17.36;52.56
43621;BME280;29213;50.770;7.298;2023-07-20T01:50:09;100635.25;;;17.07;52.76
43621;BME280;29213;50.770;7.298;2023-07-20T01:52:34;100666.47;;;17.21;53.09
43621;BME280;29213;50.770;7.298;2023-07-20T01:55:00;100677.25;;;17.21;52.68
43621;BME280;29213;50.770;7.298;2023-07-20T01:57:25;100617.22;;;16.87;52.97
43621;BME280;29213;50.770;7.298;2023-07-20T01:59:50;100679.53;;;17.25;53.25
43621;BME280;29213;50.770;7.298;2023-07-20T02:02:16;100617.81;;;16.82;53.09
43621;BME280;29213;50.770;7.298;2023-07-20T02:04:42;100674.56;;;17.21;53.34
43621;BME280;29213;50.770;7.298;2023-07-20T02:07:07;100693.19;;;17.16;53.46
43621;BME280;29213;50.770;7.298;2023-07-20T02:09:32;100651.34;;;16.93;53.67
43621;BME280;29213;50.770;7.298;2023-07-20T02:11:58;100632.28;;;16.75;54.09
43621;BME280;29213;50.770;7.298;2023-07-20T02:14:23;100683.66;;;17.07;54.08
43621;BME280;29213;50.770;7.298;2023-07-20T02:16:49;100641.59;;;16.79;54.39
43621;BME280;29213;50.770;7.298;2023-07-20T02:19:24;100640.53;;;16.73;54.12
43621;BME280;29213;50.770;7.298;2023-07-20T02:21:50;100643.88;;;16.75;54.26
43621;BME280;29213;50.770;7.298;2023-07-20T02:24:15;100637.66;;;16.75;54.40
43621;BME280;29213;50.770;7.298;2023-07-20T02:26:41;100681.16;;;16.99;54.57
43621;BME280;29213;50.770;7.298;2023-07-20T02:29:06;100684.28;;;16.95;54.43
43621;BME280;29213;50.770;7.298;2023-07-20T02:31:33;100664.13;;;16.85;54.60
43621;BME280;29213;50.770;7.298;2023-07-20T02:33:58;100669.16;;;16.88;54.60
43621;BME280;29213;50.770;7.298;2023-07-20T02:36:24;100605.75;;;16.45;54.85
43621;BME280;29213;50.770;7.298;2023-07-20T02:38:49;100629.56;;;16.61;55.05
43621;BME280;29213;50.770;7.298;2023-07-20T02:41:14;100663.69;;;16.74;55.08
43621;BME280;29213;50.770;7.298;2023-07-20T02:43:40;100667.22;;;16.75;55.18
43621;BME280;29213;50.770;7.298;2023-07-20T02:46:05;100654.38;;;16.63;55.06
43621;BME280;29213;50.770;7.298;2023-07-20T02:48:30;100598.44;;;16.25;55.22
43621;BME280;29213;50.770;7.298;2023-07-20T02:50:56;100653.13;;;16.52;55.07
43621;BME280;29213;50.770;7.298;2023-07-20T02:53:21;100681.50;;;16.68;55.42
43621;BME280;29213;50.770;7.298;2023-07-20T02:55:47;100583.72;;;16.07;55.44
43621;BME280;29213;50.770;7.298;2023-07-20T02:58:12;100672.13;;;16.58;55.41
43621;BME280;29213;50.770;7.298;2023-07-20T03:00:38;100639.59;;;16.32;55.58
43621;BME280;29213;50.770;7.298;2023-07-20T03:03:03;100630.69;;;16.25;55.50
43621;BME280;29213;50.770;7.298;2023-07-20T03:05:28;100632.75;;;16.23;55.58
43621;BME280;29213;50.770;7.298;2023-07-20T03:07:55;100682.88;;;16.51;55.73
43621;BME280;29213;50.770;7.298;2023-07-20T03:10:21;100683.06;;;16.49;55.81
43621;BME280;29213;50.770;7.298;2023-07-20T03:12:46;100662.34;;;16.36;55.77
43621;BME280;29213;50.770;7.298;2023-07-20T03:15:12;100654.66;;;16.26;56.02
43621;BME280;29213;50.770;7.298;2023-07-20T03:17:37;100667.69;;;16.29;56.00
43621;BME280;29213;50.770;7.298;2023-07-20T03:20:03;100630.78;;;15.96;56.10
43621;BME280;29213;50.770;7.298;2023-07-20T03:22:28;100657.28;;;16.13;56.11
43621;BME280;29213;50.770;7.298;2023-07-20T03:24:54;100692.53;;;16.32;56.36
43621;BME280;29213;50.770;7.298;2023-07-20T03:27:20;100615.34;;;15.76;56.03
43621;BME280;29213;50.770;7.298;2023-07-20T03:29:45;100641.44;;;15.89;56.21
43621;BME280;29213;50.770;7.298;2023-07-20T03:32:10;100705.91;;;16.25;56.23
43621;BME280;29213;50.770;7.298;2023-07-20T03:34:36;100656.53;;;15.90;56.27
43621;BME280;29213;50.770;7.298;2023-07-20T03:37:02;100681.88;;;16.10;55.97
43621;BME280;29213;50.770;7.298;2023-07-20T03:39:30;100648.84;;;15.87;56.09
43621;BME280;29213;50.770;7.298;2023-07-20T03:41:55;100696.16;;;16.17;55.94
43621;BME280;29213;50.770;7.298;2023-07-20T03:44:20;100676.66;;;16.01;55.96
43621;BME280;29213;50.770;7.298;2023-07-20T03:46:46;100656.09;;;15.87;56.34
43621;BME280;29213;50.770;7.298;2023-07-20T03:49:11;100657.31;;;15.84;55.95
43621;BME280;29213;50.770;7.298;2023-07-20T03:51:37;100607.31;;;15.48;56.39
43621;BME280;29213;50.770;7.298;2023-07-20T03:54:02;100644.25;;;15.74;55.95
43621;BME280;29213;50.770;7.298;2023-07-20T03:56:27;100676.59;;;15.95;56.05
43621;BME280;29213;50.770;7.298;2023-07-20T03:58:53;100638.03;;;15.74;56.06
43621;BME280;29213;50.770;7.298;2023-07-20T04:01:18;100627.47;;;15.66;56.15
43621;BME280;29213;50.770;7.298;2023-07-20T04:03:44;100673.25;;;15.93;56.21
43621;BME280;29213;50.770;7.298;2023-07-20T04:06:10;100711.84;;;16.13;56.15
43621;BME280;29213;50.770;7.298;2023-07-20T04:08:36;100667.66;;;15.87;56.40
43621;BME280;29213;50.770;7.298;2023-07-20T04:11:02;100686.56;;;16.01;56.09
43621;BME280;29213;50.770;7.298;2023-07-20T04:13:27;100706.88;;;16.10;56.09
43621;BME280;29213;50.770;7.298;2023-07-20T04:15:54;100664.09;;;15.80;56.12
43621;BME280;29213;50.770;7.298;2023-07-20T04:18:20;100638.84;;;15.68;56.43
43621;BME280;29213;50.770;7.298;2023-07-20T04:20:45;100706.88;;;16.10;56.12
43621;BME280;29213;50.770;7.298;2023-07-20T04:23:11;100672.84;;;15.89;56.29
43621;BME280;29213;50.770;7.298;2023-07-20T04:25:39;100705.63;;;16.13;56.47
43621;BME280;29213;50.770;7.298;2023-07-20T04:28:06;100710.56;;;16.09;55.94
43621;BME280;29213;50.770;7.298;2023-07-20T04:30:37;100657.50;;;15.83;55.88
43621;BME280;29213;50.770;7.298;2023-07-20T04:33:03;100666.00;;;15.86;55.96
43621;BME280;29213;50.770;7.298;2023-07-20T04:38:14;100705.63;;;16.13;55.57
43621;BME280;29213;50.770;7.298;2023-07-20T04:40:44;100716.00;;;16.16;55.33
43621;BME280;29213;50.770;7.298;2023-07-20T04:43:10;100695.69;;;16.07;55.10
43621;BME280;29213;50.770;7.298;2023-07-20T04:45:35;100726.75;;;16.16;55.18
43621;BME280;29213;50.770;7.298;2023-07-20T04:48:01;100714.34;;;16.15;55.46
43621;BME280;29213;50.770;7.298;2023-07-20T04:50:26;100650.59;;;15.67;55.12
43621;BME280;29213;50.770;7.298;2023-07-20T04:52:52;100651.22;;;15.69;55.19
43621;BME280;29213;50.770;7.298;2023-07-20T04:55:18;100720.53;;;16.15;54.93
43621;BME280;29213;50.770;7.298;2023-07-20T04:57:43;100673.03;;;15.87;55.30
43621;BME280;29213;50.770;7.298;2023-07-20T05:00:10;100691.28;;;15.99;55.01
43621;BME280;29213;50.770;7.298;2023-07-20T05:02:40;100725.09;;;16.15;54.98
43621;BME280;29213;50.770;7.298;2023-07-20T05:05:05;100691.44;;;15.90;55.15
43621;BME280;29213;50.770;7.298;2023-07-20T05:07:32;100684.56;;;15.81;55.15
43621;BME280;29213;50.770;7.298;2023-07-20T05:09:57;100673.00;;;15.81;55.14
43621;BME280;29213;50.770;7.298;2023-07-20T05:12:23;100710.34;;;16.04;55.20
43621;BME280;29213;50.770;7.298;2023-07-20T05:14:48;100695.66;;;16.00;55.07
43621;BME280;29213;50.770;7.298;2023-07-20T05:17:13;100727.16;;;16.20;54.95
43621;BME280;29213;50.770;7.298;2023-07-20T05:19:39;100664.69;;;15.75;55.13
43621;BME280;29213;50.770;7.298;2023-07-20T05:22:04;100657.47;;;15.76;55.11
43621;BME280;29213;50.770;7.298;2023-07-20T05:24:31;100687.34;;;15.95;55.22
43621;BME280;29213;50.770;7.298;2023-07-20T05:26:57;100701.81;;;15.94;54.99
43621;BME280;29213;50.770;7.298;2023-07-20T05:29:22;100685.34;;;16.03;55.07
43621;BME280;29213;50.770;7.298;2023-07-20T05:31:48;100667.66;;;15.87;55.09
43621;BME280;29213;50.770;7.298;2023-07-20T05:34:13;100678.25;;;15.96;54.91
43621;BME280;29213;50.770;7.298;2023-07-20T05:36:38;100729.72;;;16.28;55.11
43621;BME280;29213;50.770;7.298;2023-07-20T05:39:04;100729.31;;;16.31;54.90
43621;BME280;29213;50.770;7.298;2023-07-20T05:41:29;100684.31;;;16.05;55.20
43621;BME280;29213;50.770;7.298;2023-07-20T05:43:55;100735.09;;;16.35;54.84
43621;BME280;29213;50.770;7.298;2023-07-20T05:46:20;100650.28;;;15.83;54.79
43621;BME280;29213;50.770;7.298;2023-07-20T05:48:46;100705.28;;;16.23;54.79
43621;BME280;29213;50.770;7.298;2023-07-20T05:51:11;100732.69;;;16.47;54.73
43621;BME280;29213;50.770;7.298;2023-07-20T05:53:36;100703.66;;;16.28;54.96
43621;BME280;29213;50.770;7.298;2023-07-20T05:56:03;100742.22;;;16.49;54.74
43621;BME280;29213;50.770;7.298;2023-07-20T05:58:28;100718.63;;;16.45;54.26
43621;BME280;29213;50.770;7.298;2023-07-20T06:00:54;100718.63;;;16.51;54.44
43621;BME280;29213;50.770;7.298;2023-07-20T06:03:19;100727.34;;;16.60;54.43
43621;BME280;29213;50.770;7.298;2023-07-20T06:05:46;100719.91;;;16.55;54.41
43621;BME280;29213;50.770;7.298;2023-07-20T06:08:12;100736.09;;;16.69;54.47
43621;BME280;29213;50.770;7.298;2023-07-20T06:10:37;100736.31;;;16.74;54.20
43621;BME280;29213;50.770;7.298;2023-07-20T06:13:03;100669.75;;;16.27;54.15
43621;BME280;29213;50.770;7.298;2023-07-20T06:15:32;100742.53;;;16.75;54.33
43621;BME280;29213;50.770;7.298;2023-07-20T06:17:58;100731.13;;;16.66;54.42
43621;BME280;29213;50.770;7.298;2023-07-20T06:20:24;100709.97;;;16.49;54.41
43621;BME280;29213;50.770;7.298;2023-07-20T06:22:49;100744.16;;;16.76;54.28
43621;BME280;29213;50.770;7.298;2023-07-20T06:25:15;100711.03;;;16.55;54.40
43621;BME280;29213;50.770;7.298;2023-07-20T06:27:42;100722.22;;;16.59;54.27
43621;BME280;29213;50.770;7.298;2023-07-20T06:30:08;100742.34;;;16.83;54.33
43621;BME280;29213;50.770;7.298;2023-07-20T06:32:33;100729.50;;;16.78;53.91
43621;BME280;29213;50.770;7.298;2023-07-20T06:34:58;100731.16;;;16.73;53.82
43621;BME280;29213;50.770;7.298;2023-07-20T06:37:24;100749.16;;;16.79;54.18
43621;BME280;29213;50.770;7.298;2023-07-20T06:39:49;100728.63;;;16.64;54.34
43621;BME280;29213;50.770;7.298;2023-07-20T06:42:14;100659.19;;;16.26;54.40
43621;BME280;29213;50.770;7.298;2023-07-20T06:44:40;100692.59;;;16.52;54.19
43621;BME280;29213;50.770;7.298;2023-07-20T06:47:05;100696.50;;;16.49;54.26
43621;BME280;29213;50.770;7.298;2023-07-20T06:49:31;100683.69;;;16.51;53.96
43621;BME280;29213;50.770;7.298;2023-07-20T06:51:56;100665.69;;;16.38;54.07
43621;BME280;29213;50.770;7.298;2023-07-20T06:54:22;100709.22;;;16.69;54.24
43621;BME280;29213;50.770;7.298;2023-07-20T06:56:47;100751.09;;;16.99;54.16
43621;BME280;29213;50.770;7.298;2023-07-20T06:59:12;100685.19;;;16.61;53.51
43621;BME280;29213;50.770;7.298;2023-07-20T07:01:38;100727.91;;;16.91;53.41
43621;BME280;29213;50.770;7.298;2023-07-20T07:04:04;100689.78;;;16.74;53.05
43621;BME280;29213;50.770;7.298;2023-07-20T07:06:31;100742.03;;;17.13;53.10
43621;BME280;29213;50.770;7.298;2023-07-20T07:08:56;100671.75;;;16.74;53.17
43621;BME280;29213;50.770;7.298;2023-07-20T07:11:22;100761.09;;;17.32;53.45
43621;BME280;29213;50.770;7.298;2023-07-20T07:13:48;100657.72;;;16.72;53.02
43621;BME280;29213;50.770;7.298;2023-07-20T07:16:16;100761.94;;;17.32;53.50
43621;BME280;29213;50.770;7.298;2023-07-20T07:18:47;100770.84;;;17.33;52.93
43621;BME280;29213;50.770;7.298;2023-07-20T07:21:13;100754.28;;;17.22;52.57
43621;BME280;29213;50.770;7.298;2023-07-20T07:23:39;100763.00;;;17.31;52.93
43621;BME280;29213;50.770;7.298;2023-07-20T07:26:04;100770.47;;;17.43;52.92
43621;BME280;29213;50.770;7.298;2023-07-20T07:28:30;100707.69;;;17.08;52.80
43621;BME280;29213;50.770;7.298;2023-07-20T07:30:57;100768.19;;;17.46;52.70
43621;BME280;29213;50.770;7.298;2023-07-20T07:33:22;100695.44;;;16.99;52.18
43621;BME280;29213;50.770;7.298;2023-07-20T07:35:49;100678.25;;;16.93;52.32
43621;BME280;29213;50.770;7.298;2023-07-20T07:38:15;100674.34;;;16.89;52.23
43621;BME280;29213;50.770;7.298;2023-07-20T07:40:40;100724.47;;;17.17;51.73
43621;BME280;29213;50.770;7.298;2023-07-20T07:43:06;100733.56;;;17.30;52.02
43621;BME280;29213;50.770;7.298;2023-07-20T07:45:34;100719.06;;;17.24;52.15
43621;BME280;29213;50.770;7.298;2023-07-20T07:48:02;100723.41;;;17.32;51.90
43621;BME280;29213;50.770;7.298;2023-07-20T07:50:27;100730.06;;;17.36;52.01
43621;BME280;29213;50.770;7.298;2023-07-20T07:52:53;100748.09;;;17.49;52.09
43621;BME280;29213;50.770;7.298;2023-07-20T07:55:19;100723.44;;;17.39;52.28
43621;BME280;29213;50.770;7.298;2023-07-20T07:57:44;100740.44;;;17.53;51.84
43621;BME280;29213;50.770;7.298;2023-07-20T08:00:10;100774.41;;;17.74;51.88
43621;BME280;29213;50.770;7.298;2023-07-20T08:02:39;100774.44;;;17.81;52.01
43621;BME280;29213;50.770;7.298;2023-07-20T08:05:05;100759.28;;;17.86;51.88
43621;BME280;29213;50.770;7.298;2023-07-20T08:07:30;100774.81;;;18.11;51.52
43621;BME280;29213;50.770;7.298;2023-07-20T08:09:56;100778.34;;;18.12;50.87
43621;BME280;29213;50.770;7.298;2023-07-20T08:12:21;100721.00;;;17.71;50.70
43621;BME280;29213;50.770;7.298;2023-07-20T08:14:47;100748.31;;;18.01;50.80
43621;BME280;29213;50.770;7.298;2023-07-20T08:17:13;100782.81;;;18.45;50.90
43621;BME280;29213;50.770;7.298;2023-07-20T08:19:39;100698.56;;;18.04;50.42
43621;BME280;29213;50.770;7.298;2023-07-20T08:22:07;100736.81;;;18.33;50.45
43621;BME280;29213;50.770;7.298;2023-07-20T08:24:32;100774.47;;;18.67;49.49
43621;BME280;29213;50.770;7.298;2023-07-20T08:26:58;100760.97;;;18.74;49.30
43621;BME280;29213;50.770;7.298;2023-07-20T08:29:24;100758.84;;;18.82;48.85
43621;BME280;29213;50.770;7.298;2023-07-20T08:31:49;100785.94;;;19.01;49.26
43621;BME280;29213;50.770;7.298;2023-07-20T08:34:15;100764.44;;;18.81;49.15
43621;BME280;29213;50.770;7.298;2023-07-20T08:36:40;100767.50;;;18.91;48.45
43621;BME280;29213;50.770;7.298;2023-07-20T08:39:06;100788.94;;;19.25;47.77
43621;BME280;29213;50.770;7.298;2023-07-20T08:41:34;100731.16;;;18.94;47.22
43621;BME280;29213;50.770;7.298;2023-07-20T08:44:00;100786.59;;;19.35;47.61
43621;BME280;29213;50.770;7.298;2023-07-20T08:46:26;100794.56;;;19.56;45.83
43621;BME280;29213;50.770;7.298;2023-07-20T08:48:52;100742.41;;;19.23;46.21
43621;BME280;29213;50.770;7.298;2023-07-20T08:51:19;100730.50;;;19.31;46.27
43621;BME280;29213;50.770;7.298;2023-07-20T08:53:47;100757.00;;;19.73;45.84
43621;BME280;29213;50.770;7.298;2023-07-20T08:56:13;100762.91;;;20.07;45.04
43621;BME280;29213;50.770;7.298;2023-07-20T08:58:43;100718.28;;;19.79;45.71
43621;BME280;29213;50.770;7.298;2023-07-20T09:01:08;100750.53;;;19.99;45.38
43621;BME280;29213;50.770;7.298;2023-07-20T09:03:34;100770.66;;;20.03;45.13
43621;BME280;29213;50.770;7.298;2023-07-20T09:05:59;100761.25;;;20.13;44.23
43621;BME280;29213;50.770;7.298;2023-07-20T09:08:25;100740.81;;;20.17;43.65
43621;BME280;29213;50.770;7.298;2023-07-20T09:10:50;100776.28;;;20.46;42.67
43621;BME280;29213;50.770;7.298;2023-07-20T09:13:16;100774.38;;;20.65;42.96
43621;BME280;29213;50.770;7.298;2023-07-20T09:15:53;100769.59;;;20.86;43.23
43621;BME280;29213;50.770;7.298;2023-07-20T09:18:29;100689.88;;;20.51;40.67
43621;BME280;29213;50.770;7.298;2023-07-20T09:20:59;100769.53;;;21.05;40.41
43621;BME280;29213;50.770;7.298;2023-07-20T09:23:33;100765.88;;;21.11;40.64
43621;BME280;29213;50.770;7.298;2023-07-20T09:25:59;100753.06;;;21.06;40.43
43621;BME280;29213;50.770;7.298;2023-07-20T09:28:25;100716.63;;;20.90;41.29
43621;BME280;29213;50.770;7.298;2023-07-20T09:30:51;100750.84;;;21.15;40.92
43621;BME280;29213;50.770;7.298;2023-07-20T09:33:21;100703.69;;;20.92;40.10
43621;BME280;29213;50.770;7.298;2023-07-20T09:35:46;100768.88;;;21.33;40.90
43621;BME280;29213;50.770;7.298;2023-07-20T09:38:14;100770.56;;;21.34;39.65
43621;BME280;29213;50.770;7.298;2023-07-20T09:40:40;100771.50;;;21.40;39.79
43621;BME280;29213;50.770;7.298;2023-07-20T09:43:09;100764.44;;;21.39;39.15
43621;BME280;29213;50.770;7.298;2023-07-20T09:45:44;100674.25;;;20.84;39.84
43621;BME280;29213;50.770;7.298;2023-07-20T09:48:10;100725.78;;;21.20;40.11
43621;BME280;29213;50.770;7.298;2023-07-20T09:50:49;100781.13;;;21.36;38.79
43621;BME280;29213;50.770;7.298;2023-07-20T09:53:14;100711.84;;;21.04;39.46
43621;BME280;29213;50.770;7.298;2023-07-20T09:55:44;100734.63;;;21.39;38.99
43621;BME280;29213;50.770;7.298;2023-07-20T09:58:10;100763.78;;;21.80;38.23
43621;BME280;29213;50.770;7.298;2023-07-20T10:00:39;100762.41;;;22.01;39.64
43621;BME280;29213;50.770;7.298;2023-07-20T10:03:05;100696.16;;;21.85;37.87
43621;BME280;29213;50.770;7.298;2023-07-20T10:05:33;100755.38;;;22.41;37.39
43621;BME280;29213;50.770;7.298;2023-07-20T10:08:01;100748.97;;;22.59;37.63
43621;BME280;29213;50.770;7.298;2023-07-20T10:10:28;100726.28;;;22.65;36.76
43621;BME280;29213;50.770;7.298;2023-07-20T10:12:54;100708.63;;;22.51;36.79
43621;BME280;29213;50.770;7.298;2023-07-20T10:18:02;100744.00;;;22.56;36.40
43621;BME280;29213;50.770;7.298;2023-07-20T10:20:29;100688.91;;;22.26;35.36
43621;BME280;29213;50.770;7.298;2023-07-20T10:22:56;100746.59;;;22.63;35.40
43621;BME280;29213;50.770;7.298;2023-07-20T10:25:22;100706.44;;;22.65;36.16
43621;BME280;29213;50.770;7.298;2023-07-20T10:27:48;100739.50;;;22.91;34.51
43621;BME280;29213;50.770;7.298;2023-07-20T10:30:13;100745.47;;;22.76;35.26
43621;BME280;29213;50.770;7.298;2023-07-20T10:32:40;100741.59;;;22.72;34.92
43621;BME280;29213;50.770;7.298;2023-07-20T10:35:17;100666.97;;;22.16;35.82
43621;BME280;29213;50.770;7.298;2023-07-20T10:45:39;100710.63;;;22.85;34.74
43621;BME280;29213;50.770;7.298;2023-07-20T10:48:12;100711.00;;;22.76;34.32
43621;BME280;29213;50.770;7.298;2023-07-20T10:50:39;100706.13;;;22.61;34.87
43621;BME280;29213;50.770;7.298;2023-07-20T10:53:13;100712.34;;;22.91;35.27
43621;BME280;29213;50.770;7.298;2023-07-20T10:55:40;100696.13;;;22.79;33.61
43621;BME280;29213;50.770;7.298;2023-07-20T10:58:10;100635.22;;;22.58;33.71
43621;BME280;29213;50.770;7.298;2023-07-20T11:00:36;100716.53;;;23.28;33.38
43621;BME280;29213;50.770;7.298;2023-07-20T11:03:02;100635.28;;;22.92;31.12
43621;BME280;29213;50.770;7.298;2023-07-20T11:05:32;100662.13;;;23.23;32.64
43621;BME280;29213;50.770;7.298;2023-07-20T11:07:58;100604.59;;;22.91;32.97
43621;BME280;29213;50.770;7.298;2023-07-20T11:10:24;100697.09;;;23.53;33.51
43621;BME280;29213;50.770;7.298;2023-07-20T11:13:18;100710.34;;;23.50;33.97
43621;BME280;29213;50.770;7.298;2023-07-20T11:16:01;100622.59;;;22.80;32.33
43621;BME280;29213;50.770;7.298;2023-07-20T11:18:28;100706.50;;;23.11;32.35
43621;BME280;29213;50.770;7.298;2023-07-20T11:20:54;100712.75;;;23.12;32.63
43621;BME280;29213;50.770;7.298;2023-07-20T11:23:20;100633.78;;;22.67;32.57
43621;BME280;29213;50.770;7.298;2023-07-20T11:25:46;100705.06;;;22.91;32.63
43621;BME280;29213;50.770;7.298;2023-07-20T11:28:12;100682.22;;;22.75;33.42
43621;BME280;29213;50.770;7.298;2023-07-20T11:30:38;100653.66;;;22.55;33.04
43621;BME280;29213;50.770;7.298;2023-07-20T11:33:04;100710.44;;;22.74;33.42
43621;BME280;29213;50.770;7.298;2023-07-20T11:35:30;100677.13;;;22.50;33.78
43621;BME280;29213;50.770;7.298;2023-07-20T11:37:56;100669.34;;;22.24;34.14
43621;BME280;29213;50.770;7.298;2023-07-20T11:40:22;100677.47;;;22.24;34.42
43621;BME280;29213;50.770;7.298;2023-07-20T11:42:48;100601.69;;;21.65;35.11
43621;BME280;29213;50.770;7.298;2023-07-20T11:45:16;100680.78;;;22.14;34.85
43621;BME280;29213;50.770;7.298;2023-07-20T11:47:43;100681.28;;;21.99;34.89
43621;BME280;29213;50.770;7.298;2023-07-20T11:50:09;100710.84;;;22.13;35.18
43621;BME280;29213;50.770;7.298;2023-07-20T11:52:34;100671.28;;;21.88;35.64
43621;BME280;29213;50.770;7.298;2023-07-20T11:55:00;100682.81;;;21.95;35.56
43621;BME280;29213;50.770;7.298;2023-07-20T11:57:26;100677.06;;;21.92;35.45
43621;BME280;29213;50.770;7.298;2023-07-20T12:00:05;100667.16;;;21.85;35.48
43621;BME280;29213;50.770;7.298;2023-07-20T12:02:35;100619.72;;;21.59;36.33
43621;BME280;29213;50.770;7.298;2023-07-20T12:05:02;100602.59;;;21.46;36.46
43621;BME280;29213;50.770;7.298;2023-07-20T12:07:28;100705.75;;;22.17;36.33
43621;BME280;29213;50.770;7.298;2023-07-20T12:10:24;100704.22;;;22.21;34.81
43621;BME280;29213;50.770;7.298;2023-07-20T12:12:50;100606.59;;;21.44;33.38
43621;BME280;29213;50.770;7.298;2023-07-20T12:15:17;100600.59;;;21.30;34.01
43621;BME280;29213;50.770;7.298;2023-07-20T12:17:45;100688.84;;;21.85;34.09
43621;BME280;29213;50.770;7.298;2023-07-20T12:20:11;100659.88;;;21.74;34.17
43621;BME280;29213;50.770;7.298;2023-07-20T12:22:40;100703.19;;;22.10;34.46
43621;BME280;29213;50.770;7.298;2023-07-20T12:25:09;100696.56;;;22.18;33.83
43621;BME280;29213;50.770;7.298;2023-07-20T12:27:37;100642.88;;;21.91;33.05
43621;BME280;29213;50.770;7.298;2023-07-20T12:30:07;100646.03;;;21.99;33.79
43621;BME280;29213;50.770;7.298;2023-07-20T12:32:33;100684.16;;;22.34;34.28
43621;BME280;29213;50.770;7.298;2023-07-20T12:34:58;100650.38;;;22.12;34.04
43621;BME280;29213;50.770;7.298;2023-07-20T12:37:26;100576.78;;;21.80;33.57
43621;BME280;29213;50.770;7.298;2023-07-20T12:39:52;100681.06;;;22.42;34.15
43621;BME280;29213;50.770;7.298;2023-07-20T12:42:17;100688.88;;;22.38;34.28
43621;BME280;29213;50.770;7.298;2023-07-20T12:44:42;100443.13;;;20.85;35.11
43621;BME280;29213;50.770;7.298;2023-07-20T12:47:08;100602.56;;;21.94;34.50
43621;BME280;29213;50.770;7.298;2023-07-20T12:49:33;100635.53;;;22.03;34.41
43621;BME280;29213;50.770;7.298;2023-07-20T12:51:59;100622.34;;;21.95;34.38
43621;BME280;29213;50.770;7.298;2023-07-20T12:54:24;100606.22;;;21.88;34.33
43621;BME280;29213;50.770;7.298;2023-07-20T12:56:50;100603.63;;;21.93;34.55
43621;BME280;29213;50.770;7.298;2023-07-20T12:59:15;100546.75;;;21.69;34.62
43621;BME280;29213;50.770;7.298;2023-07-20T13:01:40;100555.31;;;21.78;34.19
43621;BME280;29213;50.770;7.298;2023-07-20T13:04:07;100599.44;;;22.02;33.90
43621;BME280;29213;50.770;7.298;2023-07-20T13:06:34;100587.34;;;21.93;33.71